Time;durP1;ratioP1;P1;durP2;ratioP2;P2;SDS_P1;SDS_P2;PMS_P1;PMS_P2;Temp;Humidity;BMP_temperature;BMP_pressure;BME280_temperature;BME280_humidity;BME280_pressure;Samples;Min_cycle;Max_cycle;Signal;HPM_P1;HPM_P2
2021/12/07 00:01:29;;;;;;;94.03;88.63;;;1.00;99.90;;;;;;4398830;32;20557;-61
2021/12/07 00:03:56;;;;;;;99.93;94.73;;;0.90;99.90;;;;;;4399220;32;20223;-64
2021/12/07 00:06:23;;;;;;;94.43;89.43;;;1.00;99.90;;;;;;4402792;32;20189;-64
2021/12/07 00:08:54;;;;;;;98.13;92.93;;;1.00;99.90;;;;;;4402387;32;20152;-68
2021/12/07 00:11:21;;;;;;;93.30;88.13;;;1.00;99.90;;;;;;4397017;32;20171;-66
2021/12/07 00:13:50;;;;;;;96.43;91.30;;;1.00;99.90;;;;;;4400994;32;20168;-62
2021/12/07 00:16:18;;;;;;;93.87;88.67;;;1.00;99.90;;;;;;4396538;32;20521;-64
2021/12/07 00:18:47;;;;;;;96.27;91.30;;;1.00;99.90;;;;;;4394242;32;20161;-63
2021/12/07 00:21:16;;;;;;;96.17;91.07;;;1.00;99.90;;;;;;4403151;32;20159;-64
2021/12/07 00:23:44;;;;;;;94.30;89.03;;;1.00;99.90;;;;;;4399827;32;20205;-64
2021/12/07 00:26:12;;;;;;;101.17;95.80;;;1.00;99.90;;;;;;4396726;32;20203;-63
2021/12/07 00:28:39;;;;;;;95.17;90.10;;;1.00;99.90;;;;;;4405493;32;20143;-62
2021/12/07 00:31:13;;;;;;;96.47;91.17;;;1.10;99.90;;;;;;4401897;32;20488;-64
2021/12/07 00:33:47;;;;;;;102.63;97.13;;;1.10;99.90;;;;;;4399645;32;20193;-66
2021/12/07 00:36:14;;;;;;;96.70;91.50;;;1.10;99.90;;;;;;4398457;32;20148;-63
2021/12/07 00:38:41;;;;;;;78.57;73.90;;;1.10;99.90;;;;;;4403383;32;20219;-63
2021/12/07 00:41:08;;;;;;;74.93;70.33;;;1.10;99.90;;;;;;4396636;32;20148;-65
2021/12/07 00:43:35;;;;;;;63.17;58.97;;;1.10;99.90;;;;;;4400641;32;20226;-65
2021/12/07 00:46:02;;;;;;;73.73;69.23;;;1.10;99.90;;;;;;4400536;32;20626;-63
2021/12/07 00:48:31;;;;;;;75.37;70.77;;;1.20;99.90;;;;;;4397290;32;20140;-63
2021/12/07 00:50:59;;;;;;;79.37;74.47;;;1.10;99.90;;;;;;4393833;32;20186;-68
2021/12/07 00:53:28;;;;;;;77.47;72.47;;;1.20;99.90;;;;;;4401729;32;20167;-64
2021/12/07 00:55:59;;;;;;;70.70;66.27;;;1.20;99.90;;;;;;4399059;32;20147;-64
2021/12/07 00:58:27;;;;;;;69.77;65.17;;;1.10;99.90;;;;;;4394942;32;20140;-64
2021/12/07 01:00:56;;;;;;;73.80;69.23;;;1.20;99.90;;;;;;4404987;32;20566;-64
2021/12/07 01:03:24;;;;;;;79.17;74.10;;;1.20;99.90;;;;;;4394733;32;20232;-65
2021/12/07 01:06:03;;;;;;;74.50;69.60;;;1.10;99.90;;;;;;4398822;32;20148;-68
2021/12/07 01:09:01;;;;;;;67.03;62.57;;;1.20;99.90;;;;;;4394475;32;20590;-67
2021/12/07 01:25:24;;;;;;;78.10;72.87;;;1.20;99.90;;;;;;4395489;32;20249;-68
2021/12/07 01:27:52;;;;;;;78.43;72.93;;;1.20;99.90;;;;;;4406622;32;20148;-71
2021/12/07 01:30:30;;;;;;;75.90;70.60;;;1.30;99.90;;;;;;4395427;32;20145;-69
2021/12/07 01:33:12;;;;;;;79.93;74.37;;;1.20;99.90;;;;;;4402274;32;20590;-66
2021/12/07 01:36:06;;;;;;;84.17;78.40;;;1.20;99.90;;;;;;4398545;32;20606;-69
2021/12/07 01:39:34;;;;;;;82.40;76.83;;;1.30;99.90;;;;;;4394310;32;20226;-66
2021/12/07 01:41:47;;;;;;;79.60;74.23;;;1.20;99.90;;;;;;4392077;32;20172;-67
2021/12/07 01:44:29;;;;;;;94.40;88.50;;;1.20;99.90;;;;;;4391660;32;20223;-69
2021/12/07 01:47:19;;;;;;;82.47;77.43;;;1.20;99.90;;;;;;4395151;32;20493;-64
2021/12/07 01:52:42;;;;;;;65.37;60.70;;;1.20;99.90;;;;;;4401570;32;20192;-71
2021/12/07 02:00:53;;;;;;;73.10;67.83;;;1.20;99.90;;;;;;4356833;32;20196;-69
2021/12/07 02:03:20;;;;;;;74.30;68.97;;;1.20;99.90;;;;;;4343603;33;20251;-68
2021/12/07 02:05:47;;;;;;;72.63;67.47;;;1.20;99.90;;;;;;4350338;33;20232;-69
2021/12/07 02:08:14;;;;;;;67.70;62.67;;;1.20;99.90;;;;;;4349505;32;20191;-71
2021/12/07 02:10:43;;;;;;;66.83;62.03;;;1.20;99.90;;;;;;4357270;32;20188;-69
2021/12/07 02:13:21;;;;;;;69.93;64.33;;;1.30;99.90;;;;;;4352287;33;20164;-67
2021/12/07 02:15:49;;;;;;;72.53;67.53;;;1.30;99.90;;;;;;4350400;32;20165;-70
2021/12/07 02:18:16;;;;;;;65.33;60.73;;;1.20;99.90;;;;;;4352870;33;20237;-67
2021/12/07 02:20:46;;;;;;;65.73;60.73;;;1.30;99.90;;;;;;4353105;33;20239;-66
2021/12/07 02:23:13;;;;;;;66.00;61.37;;;1.30;99.90;;;;;;4346653;33;20240;-67
2021/12/07 02:25:40;;;;;;;68.37;63.07;;;1.30;99.90;;;;;;4351373;33;20187;-64
2021/12/07 02:28:12;;;;;;;73.87;68.43;;;1.30;99.90;;;;;;4348506;33;20552;-69
2021/12/07 02:30:39;;;;;;;79.40;74.07;;;1.30;99.90;;;;;;4355080;33;20154;-70
2021/12/07 02:33:06;;;;;;;71.60;66.30;;;1.40;99.90;;;;;;4384808;32;20164;-67
2021/12/07 02:35:33;;;;;;;63.60;58.80;;;1.40;99.90;;;;;;4390045;32;20187;-68
2021/12/07 02:38:01;;;;;;;86.33;80.43;;;1.50;99.90;;;;;;4391418;32;20521;-70
2021/12/07 02:40:28;;;;;;;90.87;85.37;;;1.70;99.90;;;;;;4401867;32;20475;-67
2021/12/07 02:42:55;;;;;;;101.87;95.50;;;1.80;99.90;;;;;;4394165;32;20171;-70
2021/12/07 02:45:24;;;;;;;73.00;66.93;;;1.90;99.90;;;;;;4402130;32;20263;-68
2021/12/07 02:47:51;;;;;;;58.77;53.80;;;2.30;99.90;;;;;;4398793;32;20155;-67
2021/12/07 02:50:19;;;;;;;50.47;46.73;;;2.40;99.90;;;;;;4400289;32;20244;-69
2021/12/07 02:52:46;;;;;;;52.43;48.47;;;2.40;99.90;;;;;;4393781;32;20637;-68
2021/12/07 02:55:14;;;;;;;49.80;45.80;;;2.60;99.90;;;;;;4400585;32;20164;-69
2021/12/07 02:57:43;;;;;;;51.47;47.77;;;2.60;99.90;;;;;;4399518;32;20161;-65
2021/12/07 03:00:17;;;;;;;49.60;45.70;;;2.60;99.90;;;;;;4398765;32;20438;-67
2021/12/07 03:02:49;;;;;;;51.93;48.47;;;2.70;99.90;;;;;;4395687;32;20202;-69
2021/12/07 03:05:29;;;;;;;35.50;33.10;;;2.80;99.90;;;;;;4404133;32;20166;-68
2021/12/07 03:08:19;;;;;;;38.70;36.30;;;3.10;99.90;;;;;;4400580;32;20486;-66
2021/12/07 03:27:16;;;;;;;69.47;65.20;;;3.70;99.90;;;;;;4397862;32;20166;-69
2021/12/07 03:29:43;;;;;;;82.60;78.47;;;3.80;99.90;;;;;;4399916;32;20577;-69
2021/12/07 03:32:10;;;;;;;62.57;59.60;;;3.80;99.90;;;;;;4407075;32;20173;-71
2021/12/07 03:34:37;;;;;;;58.70;55.80;;;3.80;99.90;;;;;;4395237;32;20199;-68
2021/12/07 03:37:04;;;;;;;68.80;65.07;;;3.90;99.90;;;;;;4396675;32;20153;-70
2021/12/07 03:39:31;;;;;;;66.00;62.27;;;4.00;99.90;;;;;;4398540;32;20189;-67
2021/12/07 03:41:58;;;;;;;63.27;59.97;;;4.00;99.90;;;;;;4392459;32;20179;-68
2021/12/07 03:44:26;;;;;;;100.07;95.70;;;4.10;99.90;;;;;;4403351;32;20191;-68
2021/12/07 03:46:53;;;;;;;83.30;79.20;;;4.00;99.90;;;;;;4393620;32;20182;-66
2021/12/07 03:49:20;;;;;;;79.23;75.37;;;4.10;99.90;;;;;;4396440;32;20150;-67
2021/12/07 03:51:47;;;;;;;92.20;87.43;;;4.00;99.90;;;;;;4409105;32;20148;-68
2021/12/07 03:54:14;;;;;;;91.20;86.93;;;3.90;99.90;;;;;;4403078;32;20253;-68
2021/12/07 03:56:41;;;;;;;95.63;90.97;;;3.90;99.90;;;;;;4406109;32;20216;-69
2021/12/07 03:59:08;;;;;;;80.73;76.03;;;3.90;99.90;;;;;;4395043;32;20541;-66
2021/12/07 04:01:36;;;;;;;70.73;66.87;;;3.80;99.90;;;;;;4397736;32;20199;-66
2021/12/07 04:04:04;;;;;;;89.13;84.83;;;3.70;99.90;;;;;;4391919;32;20643;-68
2021/12/07 04:06:31;;;;;;;79.37;75.30;;;3.70;99.90;;;;;;4404198;32;20144;-66
2021/12/07 04:08:58;;;;;;;73.13;69.87;;;3.70;99.90;;;;;;4394539;32;20170;-67
2021/12/07 04:11:25;;;;;;;72.00;68.60;;;3.50;99.90;;;;;;4400025;32;20226;-67
2021/12/07 04:13:52;;;;;;;77.30;73.13;;;3.40;99.90;;;;;;4399388;32;20179;-68
2021/12/07 04:16:19;;;;;;;71.57;67.57;;;3.40;99.90;;;;;;4397567;32;20151;-68
2021/12/07 04:18:48;;;;;;;73.43;69.63;;;3.30;99.90;;;;;;4402084;32;20163;-66
2021/12/07 04:21:15;;;;;;;85.97;81.27;;;3.20;99.90;;;;;;4395721;32;20584;-70
2021/12/07 04:23:42;;;;;;;69.30;66.00;;;3.10;99.90;;;;;;4400121;32;20163;-69
2021/12/07 04:26:12;;;;;;;73.87;69.37;;;3.00;99.90;;;;;;4398236;32;20223;-69
2021/12/07 04:28:40;;;;;;;74.40;70.73;;;3.00;99.90;;;;;;4396054;32;20144;-66
2021/12/07 04:31:08;;;;;;;73.73;70.17;;;2.90;99.90;;;;;;4394508;32;20182;-70
2021/12/07 04:33:36;;;;;;;76.57;72.40;;;2.80;99.90;;;;;;4406869;32;20152;-67
2021/12/07 04:36:06;;;;;;;91.37;87.07;;;2.80;99.90;;;;;;4397623;32;20227;-69
2021/12/07 04:38:32;;;;;;;84.73;81.10;;;2.70;99.90;;;;;;4403223;32;20225;-69
2021/12/07 04:40:59;;;;;;;89.00;85.10;;;2.60;99.90;;;;;;4396742;32;20207;-68
2021/12/07 04:43:27;;;;;;;87.37;82.93;;;2.60;99.90;;;;;;4395357;32;20166;-70
2021/12/07 04:46:03;;;;;;;88.57;83.93;;;2.50;99.90;;;;;;4393520;32;20148;-68
2021/12/07 04:48:57;;;;;;;96.13;91.70;;;2.50;99.90;;;;;;4393342;32;20160;-68
2021/12/07 04:59:44;;;;;;;87.10;83.00;;;2.30;99.90;;;;;;4359405;32;20141;-66
2021/12/07 05:02:10;;;;;;;85.57;80.60;;;2.20;99.90;;;;;;4360189;32;20365;-67
2021/12/07 05:04:38;;;;;;;86.17;81.17;;;2.20;99.90;;;;;;4347894;32;20509;-69
2021/12/07 05:07:12;;;;;;;91.13;86.17;;;2.20;99.90;;;;;;4348530;32;20151;-67
2021/12/07 05:12:30;;;;;;;94.60;90.30;;;2.20;99.90;;;;;;4343727;32;20187;-68
2021/12/07 05:15:04;;;;;;;88.57;84.07;;;2.10;99.90;;;;;;4345401;32;20230;-69
2021/12/07 05:17:58;;;;;;;87.27;83.10;;;2.20;99.90;;;;;;4349637;32;20470;-67
2021/12/07 05:39:59;;;;;;;98.13;93.43;;;2.00;99.90;;;;;;4322803;33;20203;-68
2021/12/07 05:42:25;;;;;;;93.17;88.90;;;1.90;99.90;;;;;;4327633;33;20280;-71
2021/12/07 05:44:54;;;;;;;91.97;87.77;;;1.90;99.90;;;;;;4327017;33;20270;-70
2021/12/07 05:47:21;;;;;;;112.00;105.90;;;1.80;99.90;;;;;;4328449;33;20242;-66
2021/12/07 05:49:48;;;;;;;96.00;91.73;;;1.90;99.90;;;;;;4328991;33;20183;-68
2021/12/07 05:52:15;;;;;;;98.63;94.10;;;1.90;99.90;;;;;;4323665;33;20168;-68
2021/12/07 05:54:42;;;;;;;102.93;97.60;;;1.80;99.90;;;;;;4327912;33;20495;-69
2021/12/07 05:57:11;;;;;;;103.77;98.77;;;1.80;99.90;;;;;;4328700;33;20173;-67
2021/12/07 05:59:38;;;;;;;95.93;91.20;;;1.70;99.90;;;;;;4323728;33;20164;-70
2021/12/07 06:02:05;;;;;;;102.57;98.17;;;1.70;99.90;;;;;;4322861;33;20710;-71
2021/12/07 06:04:32;;;;;;;107.53;102.00;;;1.70;99.90;;;;;;4330482;32;20165;-69
2021/12/07 06:06:59;;;;;;;104.27;98.20;;;1.70;99.90;;;;;;4363479;32;20609;-68
2021/12/07 06:09:27;;;;;;;106.17;100.13;;;1.80;99.90;;;;;;4395532;32;20607;-70
2021/12/07 06:11:54;;;;;;;109.33;102.67;;;1.90;99.90;;;;;;4399491;32;20159;-67
2021/12/07 06:14:29;;;;;;;117.73;111.60;;;1.90;99.90;;;;;;4398335;32;20187;-70
2021/12/07 06:16:56;;;;;;;97.67;93.17;;;1.90;99.90;;;;;;4393422;32;20173;-67
2021/12/07 06:19:23;;;;;;;102.53;97.50;;;1.80;99.90;;;;;;4397100;32;20656;-66
2021/12/07 06:21:50;;;;;;;97.77;93.00;;;1.80;99.90;;;;;;4389797;32;20294;-69
2021/12/07 06:24:17;;;;;;;98.93;94.17;;;1.70;99.90;;;;;;4395218;32;20604;-67
2021/12/07 06:26:44;;;;;;;111.30;106.00;;;1.70;99.90;;;;;;4401555;32;20159;-67
2021/12/07 06:29:11;;;;;;;105.30;100.33;;;1.70;99.90;;;;;;4396993;32;20186;-68
2021/12/07 06:31:39;;;;;;;103.63;98.83;;;1.60;99.90;;;;;;4398749;32;20163;-70
2021/12/07 06:34:06;;;;;;;114.80;109.33;;;1.60;99.90;;;;;;4396659;32;20179;-69
2021/12/07 06:36:33;;;;;;;124.37;118.53;;;1.60;99.90;;;;;;4399868;32;20165;-68
2021/12/07 06:39:00;;;;;;;125.53;119.67;;;1.50;99.90;;;;;;4399519;32;20611;-68
2021/12/07 06:41:26;;;;;;;120.27;114.43;;;1.50;99.90;;;;;;4399383;32;20168;-66
2021/12/07 06:43:53;;;;;;;123.83;118.03;;;1.40;99.90;;;;;;4398975;32;20164;-68
2021/12/07 06:46:27;;;;;;;120.47;114.73;;;1.40;99.90;;;;;;4399683;32;20583;-67
2021/12/07 06:48:56;;;;;;;122.03;116.63;;;1.40;99.90;;;;;;4398244;32;20211;-68
2021/12/07 06:51:23;;;;;;;125.00;119.43;;;1.30;99.90;;;;;;4399590;32;20224;-65
2021/12/07 06:53:51;;;;;;;129.10;122.87;;;1.30;99.90;;;;;;4400919;32;20140;-66
2021/12/07 06:56:18;;;;;;;131.23;125.17;;;1.30;99.90;;;;;;4398791;32;20519;-67
2021/12/07 06:58:45;;;;;;;131.43;125.27;;;1.30;99.90;;;;;;4400925;32;20156;-68
2021/12/07 07:01:14;;;;;;;132.00;125.93;;;1.20;99.90;;;;;;4396361;32;20613;-70
2021/12/07 07:03:41;;;;;;;135.20;128.77;;;1.20;99.90;;;;;;4400568;32;20242;-68
2021/12/07 07:06:09;;;;;;;139.40;133.23;;;1.20;99.90;;;;;;4398575;32;20148;-65
2021/12/07 07:08:37;;;;;;;131.03;124.90;;;1.20;99.90;;;;;;4398690;32;20187;-65
2021/12/07 07:11:05;;;;;;;141.97;135.20;;;1.20;99.90;;;;;;4397981;32;20158;-66
2021/12/07 07:13:32;;;;;;;131.10;125.10;;;1.10;99.90;;;;;;4402139;32;20519;-65
2021/12/07 07:16:00;;;;;;;138.57;132.10;;;1.10;99.90;;;;;;4392494;32;20143;-70
2021/12/07 07:18:27;;;;;;;131.53;125.83;;;1.10;99.90;;;;;;4392341;32;20588;-66
2021/12/07 07:20:55;;;;;;;122.20;116.27;;;1.10;99.90;;;;;;4397654;32;20525;-65
2021/12/07 07:23:24;;;;;;;115.50;110.30;;;1.00;99.90;;;;;;4394226;32;20189;-65
2021/12/07 07:25:51;;;;;;;117.70;112.40;;;1.00;99.90;;;;;;4400803;32;20515;-69
2021/12/07 07:28:20;;;;;;;114.40;109.30;;;1.00;99.90;;;;;;4401799;32;20151;-65
2021/12/07 07:30:46;;;;;;;118.30;112.17;;;0.90;99.90;;;;;;4395574;32;20174;-65
2021/12/07 07:33:13;;;;;;;115.20;109.60;;;0.90;99.90;;;;;;4399468;32;20179;-65
2021/12/07 07:35:40;;;;;;;123.47;117.77;;;1.00;99.90;;;;;;4396889;32;20167;-66
2021/12/07 07:38:07;;;;;;;130.53;124.27;;;1.00;99.90;;;;;;4398798;32;20606;-64
2021/12/07 07:40:36;;;;;;;117.70;112.63;;;0.90;99.90;;;;;;4399606;32;20159;-63
2021/12/07 07:43:03;;;;;;;120.17;114.60;;;1.00;99.90;;;;;;4394777;32;20156;-67
2021/12/07 07:45:30;;;;;;;121.50;116.03;;;1.00;99.90;;;;;;4402690;32;20639;-64
2021/12/07 07:47:57;;;;;;;119.23;113.33;;;0.90;99.90;;;;;;4403117;32;20162;-64
2021/12/07 07:50:24;;;;;;;115.63;109.90;;;1.00;99.90;;;;;;4392796;32;20144;-66
2021/12/07 07:52:51;;;;;;;120.20;114.33;;;1.00;99.90;;;;;;4395447;32;20148;-67
2021/12/07 07:55:18;;;;;;;122.97;116.97;;;1.00;99.90;;;;;;4395346;32;20238;-65
2021/12/07 07:57:46;;;;;;;124.13;117.87;;;1.00;99.90;;;;;;4396191;32;20215;-68
2021/12/07 08:00:17;;;;;;;124.60;118.63;;;1.10;99.90;;;;;;4402365;32;20182;-66
2021/12/07 08:02:44;;;;;;;136.20;129.87;;;1.10;99.90;;;;;;4400531;32;20148;-66
2021/12/07 08:05:12;;;;;;;149.30;142.60;;;1.20;99.90;;;;;;4398028;32;20634;-64
2021/12/07 08:07:40;;;;;;;130.47;124.30;;;1.20;99.90;;;;;;4394081;32;20144;-65
2021/12/07 08:10:09;;;;;;;129.97;124.03;;;1.20;99.90;;;;;;4399554;32;20199;-65
2021/12/07 08:12:37;;;;;;;124.73;118.37;;;1.30;99.90;;;;;;4399843;32;20583;-64
2021/12/07 08:15:07;;;;;;;120.40;114.47;;;1.40;99.90;;;;;;4393732;32;20239;-64
2021/12/07 08:17:34;;;;;;;119.03;112.80;;;1.40;99.90;;;;;;4384938;32;20194;-64
2021/12/07 08:20:01;;;;;;;111.87;106.63;;;1.50;99.90;;;;;;4393010;32;20157;-66
2021/12/07 08:22:30;;;;;;;127.30;120.97;;;1.50;99.90;;;;;;4392513;32;20179;-65
2021/12/07 08:24:57;;;;;;;136.50;130.00;;;1.60;99.90;;;;;;4400214;32;20211;-64
2021/12/07 08:27:24;;;;;;;134.60;127.80;;;1.70;99.90;;;;;;4396704;32;20182;-65
2021/12/07 08:29:51;;;;;;;130.90;124.37;;;1.80;99.90;;;;;;4395541;32;20152;-68
2021/12/07 08:32:20;;;;;;;124.50;118.20;;;1.90;99.90;;;;;;4391812;32;20493;-65
2021/12/07 08:34:47;;;;;;;135.67;129.00;;;2.10;99.90;;;;;;4391425;32;20180;-64
2021/12/07 08:37:14;;;;;;;130.70;123.17;;;2.40;99.90;;;;;;4394367;32;20166;-65
2021/12/07 08:39:41;;;;;;;125.23;118.20;;;2.50;99.90;;;;;;4393437;32;20171;-66
2021/12/07 08:42:09;;;;;;;132.80;125.67;;;2.60;99.90;;;;;;4392285;32;20144;-69
2021/12/07 08:44:36;;;;;;;135.43;129.10;;;2.60;99.90;;;;;;4391695;32;20544;-65
2021/12/07 08:47:04;;;;;;;126.10;120.10;;;2.50;99.90;;;;;;4404021;32;20144;-67
2021/12/07 08:49:33;;;;;;;127.50;120.77;;;2.50;99.90;;;;;;4405108;32;20160;-67
2021/12/07 08:52:00;;;;;;;106.97;101.53;;;2.40;99.90;;;;;;4391168;32;20265;-65
2021/12/07 08:54:36;;;;;;;117.17;111.20;;;2.40;99.90;;;;;;4389920;32;20625;-66
2021/12/07 08:59:49;;;;;;;122.23;115.90;;;2.30;99.90;;;;;;4394953;32;20187;-66
2021/12/07 09:02:20;;;;;;;110.33;104.97;;;2.30;99.90;;;;;;4391009;32;20171;-66
2021/12/07 09:04:49;;;;;;;110.60;104.70;;;2.40;99.90;;;;;;4399867;32;20252;-66
2021/12/07 09:07:17;;;;;;;124.83;118.67;;;2.50;99.90;;;;;;4396243;32;20196;-70
2021/12/07 09:09:44;;;;;;;121.97;115.30;;;2.80;99.90;;;;;;4392965;32;20148;-65
2021/12/07 09:12:13;;;;;;;111.30;104.87;;;2.90;99.90;;;;;;4398412;32;20469;-68
2021/12/07 09:14:41;;;;;;;106.47;100.30;;;2.90;99.90;;;;;;4399991;32;20478;-66
2021/12/07 09:17:10;;;;;;;122.50;115.90;;;2.90;99.90;;;;;;4399503;32;20671;-66
2021/12/07 09:19:37;;;;;;;130.57;123.43;;;3.00;99.90;;;;;;4402340;32;20210;-65
2021/12/07 09:22:06;;;;;;;126.23;119.90;;;3.00;99.90;;;;;;4404902;32;20590;-67
2021/12/07 09:24:34;;;;;;;114.63;108.13;;;3.20;99.90;;;;;;4390661;32;20175;-69
2021/12/07 09:27:01;;;;;;;115.60;108.83;;;3.20;99.90;;;;;;4391420;32;20206;-65
2021/12/07 09:29:28;;;;;;;112.83;106.57;;;3.20;99.90;;;;;;4401780;32;20600;-67
2021/12/07 09:31:56;;;;;;;105.87;99.63;;;3.20;99.90;;;;;;4391888;32;20614;-66
2021/12/07 09:34:22;;;;;;;101.97;96.13;;;3.20;99.90;;;;;;4394070;32;20162;-65
2021/12/07 09:36:49;;;;;;;119.27;112.97;;;3.20;99.90;;;;;;4405658;32;20198;-66
2021/12/07 09:39:19;;;;;;;127.00;120.00;;;3.30;99.90;;;;;;4391169;32;20195;-66
2021/12/07 09:41:47;;;;;;;113.90;106.97;;;3.30;99.90;;;;;;4390604;32;20145;-66
2021/12/07 09:44:14;;;;;;;117.57;110.33;;;3.30;99.90;;;;;;4404683;32;20154;-68
2021/12/07 09:46:42;;;;;;;97.37;91.23;;;3.40;99.90;;;;;;4394251;32;20179;-66
2021/12/07 09:49:10;;;;;;;145.40;137.20;;;3.50;99.90;;;;;;4394706;32;20165;-65
2021/12/07 09:51:38;;;;;;;127.03;118.70;;;3.40;99.90;;;;;;4397662;32;20183;-67
2021/12/07 09:54:08;;;;;;;121.47;113.77;;;3.40;99.90;;;;;;4397157;32;20629;-67
2021/12/07 09:56:36;;;;;;;131.63;123.77;;;3.50;99.90;;;;;;4402959;32;20186;-67
2021/12/07 09:59:06;;;;;;;104.20;97.20;;;3.50;99.90;;;;;;4399369;32;20149;-67
2021/12/07 10:01:33;;;;;;;111.87;104.03;;;3.60;99.90;;;;;;4394448;32;20152;-68
2021/12/07 10:04:00;;;;;;;124.83;116.50;;;3.70;99.90;;;;;;4392642;32;20465;-68
2021/12/07 10:06:27;;;;;;;111.47;103.77;;;3.80;99.90;;;;;;4401372;32;20188;-65
2021/12/07 10:08:55;;;;;;;111.37;104.43;;;3.90;99.90;;;;;;4395906;32;20557;-67
2021/12/07 10:11:22;;;;;;;131.37;123.90;;;3.80;99.90;;;;;;4395834;32;20163;-67
2021/12/07 10:13:52;;;;;;;119.87;111.07;;;3.80;99.90;;;;;;4393741;32;20219;-65
2021/12/07 10:16:21;;;;;;;115.93;107.83;;;3.80;99.90;;;;;;4392536;32;20495;-65
2021/12/07 10:18:48;;;;;;;108.13;100.43;;;3.90;99.90;;;;;;4398182;32;20628;-68
2021/12/07 10:21:18;;;;;;;111.13;103.43;;;3.90;99.90;;;;;;4393270;32;20593;-65
2021/12/07 10:23:49;;;;;;;104.83;97.57;;;4.00;99.90;;;;;;4322969;32;2130813;-65
2021/12/07 10:26:17;;;;;;;105.27;98.03;;;4.00;99.90;;;;;;4395980;32;20183;-65
2021/12/07 10:28:47;;;;;;;105.60;97.47;;;3.90;99.90;;;;;;4389541;32;20190;-65
2021/12/07 10:31:32;;;;;;;104.03;96.97;;;4.00;99.90;;;;;;4394955;32;20161;-65
2021/12/07 10:34:01;;;;;;;107.53;99.57;;;4.00;99.90;;;;;;4395330;32;20218;-69
2021/12/07 10:36:31;;;;;;;74.77;67.87;;;4.10;99.90;;;;;;4398700;32;20173;-66
2021/12/07 10:39:07;;;;;;;87.13;80.80;;;4.00;99.90;;;;;;4399638;32;20174;-65
2021/12/07 10:41:36;;;;;;;109.50;101.37;;;4.10;99.90;;;;;;4393009;32;20621;-65
2021/12/07 10:44:07;;;;;;;97.00;89.53;;;4.10;99.90;;;;;;4394780;32;20163;-65
2021/12/07 10:46:39;;;;;;;98.37;91.20;;;4.20;99.90;;;;;;4398276;32;20178;-65
2021/12/07 10:49:26;;;;;;;101.23;92.37;;;4.20;99.90;;;;;;4401979;32;20159;-65
2021/12/07 10:52:05;;;;;;;98.50;91.63;;;4.30;99.90;;;;;;4390360;32;20178;-67
2021/12/07 10:54:35;;;;;;;96.60;89.40;;;4.40;99.90;;;;;;4396627;32;20159;-67
2021/12/07 10:57:04;;;;;;;92.70;85.30;;;4.50;99.90;;;;;;4400527;32;20599;-64
2021/12/07 10:59:32;;;;;;;91.00;84.87;;;4.50;99.90;;;;;;4393915;32;20160;-67
2021/12/07 11:02:10;;;;;;;64.57;58.07;;;4.60;99.90;;;;;;4401783;32;20160;-64
2021/12/07 11:04:40;;;;;;;66.57;59.67;;;4.60;99.90;;;;;;4397633;32;20160;-65
2021/12/07 11:07:11;;;;;;;64.50;58.37;;;4.70;99.90;;;;;;4396428;32;20182;-64
2021/12/07 11:09:55;;;;;;;67.30;55.27;;;4.70;99.90;;;;;;4402809;32;20190;-65
2021/12/07 11:12:22;;;;;;;77.33;70.67;;;4.70;99.90;;;;;;4389945;32;20174;-64
2021/12/07 11:14:53;;;;;;;82.17;74.20;;;4.80;99.90;;;;;;4398325;32;20201;-66
2021/12/07 11:17:23;;;;;;;79.27;73.40;;;4.90;99.90;;;;;;4405331;32;20196;-64
2021/12/07 11:19:51;;;;;;;87.00;78.87;;;4.90;99.90;;;;;;4394252;32;20546;-67
2021/12/07 11:22:21;;;;;;;82.53;76.30;;;4.90;99.90;;;;;;4394149;32;20175;-68
2021/12/07 11:24:49;;;;;;;71.23;65.43;;;5.00;99.90;;;;;;4394341;32;20237;-67
2021/12/07 11:30:07;;;;;;;92.90;86.33;;;5.10;99.90;;;;;;4397635;32;20174;-67
2021/12/07 11:32:36;;;;;;;78.07;72.70;;;5.20;99.90;;;;;;4407100;32;20198;-66
2021/12/07 11:35:14;;;;;;;71.23;65.77;;;5.20;99.90;;;;;;4397651;32;20243;-67
2021/12/07 11:37:42;;;;;;;76.53;70.07;;;5.20;99.90;;;;;;4399036;32;20155;-69
2021/12/07 11:40:11;;;;;;;64.40;59.10;;;5.20;99.90;;;;;;4399500;32;20168;-67
2021/12/07 11:42:41;;;;;;;75.00;69.63;;;5.30;99.90;;;;;;4394077;32;20623;-66
2021/12/07 11:45:12;;;;;;;68.87;62.87;;;5.20;99.90;;;;;;4392479;32;20164;-69
2021/12/07 11:47:43;;;;;;;63.40;58.60;;;5.20;99.90;;;;;;4393536;32;20207;-67
2021/12/07 11:50:24;;;;;;;64.27;59.33;;;5.20;99.90;;;;;;4400460;32;20160;-66
2021/12/07 11:52:54;;;;;;;56.83;52.30;;;5.20;99.90;;;;;;4399018;32;20160;-66
2021/12/07 11:55:22;;;;;;;60.73;55.67;;;5.20;99.90;;;;;;4398979;32;20195;-66
2021/12/07 11:57:50;;;;;;;61.53;57.67;;;5.20;99.90;;;;;;4397150;32;20243;-68
2021/12/07 12:00:22;;;;;;;65.97;61.43;;;5.20;99.90;;;;;;4393235;32;20282;-67
2021/12/07 12:02:51;;;;;;;54.50;50.33;;;5.30;99.90;;;;;;4398656;32;20164;-68
2021/12/07 12:05:19;;;;;;;52.70;49.37;;;5.30;99.90;;;;;;4404653;32;20583;-68
2021/12/07 12:07:47;;;;;;;51.03;47.27;;;5.30;99.90;;;;;;4396131;32;20163;-68
2021/12/07 12:10:17;;;;;;;56.00;52.10;;;5.30;99.90;;;;;;4401621;32;20521;-69
2021/12/07 12:12:56;;;;;;;52.00;48.33;;;5.30;99.90;;;;;;4393637;32;20168;-70
2021/12/07 12:15:37;;;;;;;59.27;55.00;;;5.30;99.90;;;;;;4395437;32;22758;-68
2021/12/07 12:18:14;;;;;;;51.00;46.90;;;5.40;99.90;;;;;;4396752;32;20178;-74
2021/12/07 12:20:56;;;;;;;54.27;50.63;;;5.40;99.90;;;;;;4402158;32;20167;-66
2021/12/07 12:23:33;;;;;;;48.63;44.70;;;5.50;99.90;;;;;;4405270;32;20209;-69
2021/12/07 12:26:03;;;;;;;49.73;46.73;;;5.50;99.90;;;;;;4395538;32;20240;-71
2021/12/07 12:28:35;;;;;;;54.30;50.80;;;5.50;99.90;;;;;;4398219;32;20179;-69
2021/12/07 12:31:02;;;;;;;49.50;46.23;;;5.50;99.90;;;;;;4403858;32;20254;-66
2021/12/07 12:33:45;;;;;;;58.13;54.37;;;5.50;99.90;;;;;;4391512;32;20199;-71
2021/12/07 12:36:12;;;;;;;68.77;64.57;;;5.40;99.90;;;;;;4395244;32;20176;-68
2021/12/07 12:38:46;;;;;;;63.50;59.33;;;5.40;99.90;;;;;;4398544;32;20164;-67
2021/12/07 12:41:14;;;;;;;57.23;53.73;;;5.40;99.90;;;;;;4392826;32;20148;-73
2021/12/07 12:43:44;;;;;;;61.57;57.53;;;5.40;99.90;;;;;;4393689;32;20164;-66
2021/12/07 12:46:12;;;;;;;55.97;52.23;;;5.40;99.90;;;;;;4399357;32;20526;-68
2021/12/07 12:48:45;;;;;;;56.70;52.80;;;5.40;99.90;;;;;;4393869;32;20160;-66
2021/12/07 12:51:12;;;;;;;59.83;56.03;;;5.40;99.90;;;;;;4398815;32;20155;-67
2021/12/07 12:53:39;;;;;;;66.53;62.03;;;5.40;99.90;;;;;;4401319;32;20194;-66
2021/12/07 12:56:08;;;;;;;74.37;69.30;;;5.50;99.90;;;;;;4397808;32;20156;-68
2021/12/07 12:58:42;;;;;;;69.40;65.47;;;5.50;99.90;;;;;;4392195;32;20156;-64
2021/12/07 13:01:24;;;;;;;79.83;75.10;;;5.40;99.90;;;;;;4395804;32;20183;-65
2021/12/07 13:04:09;;;;;;;76.50;71.30;;;5.40;99.90;;;;;;4400588;32;20190;-64
2021/12/07 13:07:01;;;;;;;76.47;72.17;;;5.30;99.90;;;;;;4391035;32;20156;-66
2021/12/07 13:09:42;;;;;;;75.27;71.20;;;5.30;99.90;;;;;;4391898;32;20224;-65
2021/12/07 13:12:15;;;;;;;78.80;73.47;;;5.30;99.90;;;;;;4393718;32;20157;-64
2021/12/07 13:14:59;;;;;;;79.37;75.30;;;5.20;99.90;;;;;;4398887;32;20171;-66
2021/12/07 13:17:34;;;;;;;79.73;75.40;;;5.20;99.90;;;;;;4394216;32;20220;-65
2021/12/07 13:20:22;;;;;;;73.63;69.33;;;5.20;99.90;;;;;;4396076;32;20170;-68
2021/12/07 13:22:56;;;;;;;70.50;66.87;;;5.20;99.90;;;;;;4397575;32;20195;-64
2021/12/07 13:25:29;;;;;;;78.67;73.80;;;5.20;99.90;;;;;;4398185;32;20213;-67
2021/12/07 13:28:11;;;;;;;83.33;78.77;;;5.20;99.90;;;;;;4398949;32;20192;-65
2021/12/07 13:30:56;;;;;;;79.73;75.23;;;5.20;99.90;;;;;;4396377;32;20211;-66
2021/12/07 13:33:31;;;;;;;79.90;75.07;;;5.20;99.90;;;;;;4395990;32;20488;-65
2021/12/07 13:36:03;;;;;;;81.77;76.87;;;5.20;99.90;;;;;;4394544;32;20256;-65
2021/12/07 13:38:32;;;;;;;91.73;86.77;;;5.10;99.90;;;;;;4397422;32;20152;-65
2021/12/07 13:41:20;;;;;;;88.47;83.97;;;5.10;99.90;;;;;;4396585;32;20576;-67
2021/12/07 13:43:50;;;;;;;88.37;83.83;;;5.10;99.90;;;;;;4390994;32;20152;-65
2021/12/07 13:46:19;;;;;;;88.53;84.07;;;5.10;99.90;;;;;;4400430;32;20148;-68
2021/12/07 13:48:47;;;;;;;84.53;79.57;;;5.00;99.90;;;;;;4394380;32;20238;-67
2021/12/07 13:51:21;;;;;;;85.93;81.13;;;5.00;99.90;;;;;;4391775;32;20184;-68
2021/12/07 13:53:50;;;;;;;80.53;76.20;;;5.10;99.90;;;;;;4388860;32;20548;-66
2021/12/07 13:56:21;;;;;;;86.37;81.73;;;5.00;99.90;;;;;;4396011;32;20283;-66
2021/12/07 13:58:55;;;;;;;88.63;83.47;;;5.00;99.90;;;;;;4390789;32;20526;-65
2021/12/07 14:01:24;;;;;;;98.87;93.33;;;5.00;99.90;;;;;;4391955;32;20534;-65